sensor_id;sensor_type;location;lat;lon;timestamp;temperature;humidity
8711;DHT22;4392;47.400;8.062;2023-09-19T00:00:23;19.90;99.90
8711;DHT22;4392;47.400;8.062;2023-09-19T00:02:56;19.90;99.90
8711;DHT22;4392;47.400;8.062;2023-09-19T00:05:28;19.90;99.90
8711;DHT22;4392;47.400;8.062;2023-09-19T00:07:58;19.90;99.90
8711;DHT22;4392;47.400;8.062;2023-09-19T00:10:27;19.80;99.90
8711;DHT22;4392;47.400;8.062;2023-09-19T00:12:57;19.80;99.90
8711;DHT22;4392;47.400;8.062;2023-09-19T00:15:25;19.80;99.90
8711;DHT22;4392;47.400;8.062;2023-09-19T00:17:54;19.90;99.90
8711;DHT22;4392;47.400;8.062;2023-09-19T00:20:20;19.90;99.90
8711;DHT22;4392;47.400;8.062;2023-09-19T00:22:49;19.90;99.90
8711;DHT22;4392;47.400;8.062;2023-09-19T00:25:17;19.80;99.90
8711;DHT22;4392;47.400;8.062;2023-09-19T00:27:48;19.80;99.90
8711;DHT22;4392;47.400;8.062;2023-09-19T00:30:17;19.60;99.90
8711;DHT22;4392;47.400;8.062;2023-09-19T00:32:47;19.90;99.90
8711;DHT22;4392;47.400;8.062;2023-09-19T00:35:16;20.40;99.90
8711;DHT22;4392;47.400;8.062;2023-09-19T00:37:42;20.30;99.90
8711;DHT22;4392;47.400;8.062;2023-09-19T00:40:09;20.00;99.90
8711;DHT22;4392;47.400;8.062;2023-09-19T00:42:48;20.00;99.90
8711;DHT22;4392;47.400;8.062;2023-09-19T00:45:17;20.00;99.90
8711;DHT22;4392;47.400;8.062;2023-09-19T00:47:52;20.00;99.90
8711;DHT22;4392;47.400;8.062;2023-09-19T00:50:18;19.90;99.90
8711;DHT22;4392;47.400;8.062;2023-09-19T00:52:46;20.10;99.90
8711;DHT22;4392;47.400;8.062;2023-09-19T00:55:14;20.50;99.90
8711;DHT22;4392;47.400;8.062;2023-09-19T00:57:41;20.60;99.90
8711;DHT22;4392;47.400;8.062;2023-09-19T01:00:08;20.40;99.90
8711;DHT22;4392;47.400;8.062;2023-09-19T01:02:44;20.00;99.90
8711;DHT22;4392;47.400;8.062;2023-09-19T01:05:10;20.00;99.90
8711;DHT22;4392;47.400;8.062;2023-09-19T01:07:38;20.00;99.90
8711;DHT22;4392;47.400;8.062;2023-09-19T01:10:08;19.90;99.90
8711;DHT22;4392;47.400;8.062;2023-09-19T01:12:58;19.90;99.90
8711;DHT22;4392;47.400;8.062;2023-09-19T01:26:00;20.20;99.90
8711;DHT22;4392;47.400;8.062;2023-09-19T01:31:23;19.90;99.90
8711;DHT22;4392;47.400;8.062;2023-09-19T01:36:28;19.80;99.90
8711;DHT22;4392;47.400;8.062;2023-09-19T01:38:57;19.80;99.90
8711;DHT22;4392;47.400;8.062;2023-09-19T01:41:35;19.80;99.90
8711;DHT22;4392;47.400;8.062;2023-09-19T01:44:15;19.70;99.90
8711;DHT22;4392;47.400;8.062;2023-09-19T01:46:44;19.70;99.90
8711;DHT22;4392;47.400;8.062;2023-09-19T01:52:10;19.70;99.90
8711;DHT22;4392;47.400;8.062;2023-09-19T01:54:48;19.70;99.90
8711;DHT22;4392;47.400;8.062;2023-09-19T01:57:22;19.60;99.90
8711;DHT22;4392;47.400;8.062;2023-09-19T02:02:36;20.00;99.90
8711;DHT22;4392;47.400;8.062;2023-09-19T02:05:03;19.90;99.90
8711;DHT22;4392;47.400;8.062;2023-09-19T02:07:29;19.90;99.90
8711;DHT22;4392;47.400;8.062;2023-09-19T02:09:57;19.80;99.90
8711;DHT22;4392;47.400;8.062;2023-09-19T02:12:25;19.80;99.90
8711;DHT22;4392;47.400;8.062;2023-09-19T02:14:51;19.80;99.90
8711;DHT22;4392;47.400;8.062;2023-09-19T02:17:19;19.80;99.90
8711;DHT22;4392;47.400;8.062;2023-09-19T02:19:44;20.10;99.90
8711;DHT22;4392;47.400;8.062;2023-09-19T02:22:13;20.40;99.90
8711;DHT22;4392;47.400;8.062;2023-09-19T02:24:39;20.20;99.90
8711;DHT22;4392;47.400;8.062;2023-09-19T02:27:05;20.10;99.90
8711;DHT22;4392;47.400;8.062;2023-09-19T02:29:32;20.00;99.90
8711;DHT22;4392;47.400;8.062;2023-09-19T02:32:02;19.90;99.90
8711;DHT22;4392;47.400;8.062;2023-09-19T02:34:28;19.90;99.90
8711;DHT22;4392;47.400;8.062;2023-09-19T02:36:56;19.90;99.90
8711;DHT22;4392;47.400;8.062;2023-09-19T02:39:22;19.90;99.90
8711;DHT22;4392;47.400;8.062;2023-09-19T02:41:49;19.90;99.90
8711;DHT22;4392;47.400;8.062;2023-09-19T02:44:15;19.80;99.90
8711;DHT22;4392;47.400;8.062;2023-09-19T02:46:40;19.80;99.90
8711;DHT22;4392;47.400;8.062;2023-09-19T02:49:06;19.80;99.90
8711;DHT22;4392;47.400;8.062;2023-09-19T02:51:32;19.60;99.90
8711;DHT22;4392;47.400;8.062;2023-09-19T02:54:01;19.60;99.90
8711;DHT22;4392;47.400;8.062;2023-09-19T02:56:29;19.60;99.90
8711;DHT22;4392;47.400;8.062;2023-09-19T02:58:56;19.60;99.90
8711;DHT22;4392;47.400;8.062;2023-09-19T03:01:23;19.70;99.90
8711;DHT22;4392;47.400;8.062;2023-09-19T03:03:49;19.70;99.90
8711;DHT22;4392;47.400;8.062;2023-09-19T03:06:15;19.70;99.90
8711;DHT22;4392;47.400;8.062;2023-09-19T03:08:41;19.60;99.90
8711;DHT22;4392;47.400;8.062;2023-09-19T03:11:10;19.60;99.90
8711;DHT22;4392;47.400;8.062;2023-09-19T03:13:44;19.60;99.90
8711;DHT22;4392;47.400;8.062;2023-09-19T03:16:10;19.70;99.90
8711;DHT22;4392;47.400;8.062;2023-09-19T03:18:36;20.20;99.90
8711;DHT22;4392;47.400;8.062;2023-09-19T03:21:01;20.50;99.90
8711;DHT22;4392;47.400;8.062;2023-09-19T03:23:28;20.70;99.90
8711;DHT22;4392;47.400;8.062;2023-09-19T03:25:55;20.80;99.90
8711;DHT22;4392;47.400;8.062;2023-09-19T03:28:21;20.80;99.90
8711;DHT22;4392;47.400;8.062;2023-09-19T03:31:00;20.90;99.90
8711;DHT22;4392;47.400;8.062;2023-09-19T03:33:26;20.90;99.90
8711;DHT22;4392;47.400;8.062;2023-09-19T03:35:55;20.90;99.90
8711;DHT22;4392;47.400;8.062;2023-09-19T03:38:23;20.90;99.90
8711;DHT22;4392;47.400;8.062;2023-09-19T03:40:49;20.90;99.90
8711;DHT22;4392;47.400;8.062;2023-09-19T03:43:14;21.00;99.90
8711;DHT22;4392;47.400;8.062;2023-09-19T03:45:40;21.00;99.90
8711;DHT22;4392;47.400;8.062;2023-09-19T03:48:10;21.00;99.90
8711;DHT22;4392;47.400;8.062;2023-09-19T03:50:36;21.10;99.90
8711;DHT22;4392;47.400;8.062;2023-09-19T03:53:02;21.10;99.90
8711;DHT22;4392;47.400;8.062;2023-09-19T03:55:27;21.10;99.90
8711;DHT22;4392;47.400;8.062;2023-09-19T03:57:53;20.70;99.90
8711;DHT22;4392;47.400;8.062;2023-09-19T04:00:19;20.90;99.90
8711;DHT22;4392;47.400;8.062;2023-09-19T04:02:48;21.00;99.90
8711;DHT22;4392;47.400;8.062;2023-09-19T04:05:13;21.00;99.90
8711;DHT22;4392;47.400;8.062;2023-09-19T04:07:39;20.80;99.90
8711;DHT22;4392;47.400;8.062;2023-09-19T04:10:05;20.50;99.90
8711;DHT22;4392;47.400;8.062;2023-09-19T04:12:34;20.40;99.90
8711;DHT22;4392;47.400;8.062;2023-09-19T04:14:59;20.30;99.90
8711;DHT22;4392;47.400;8.062;2023-09-19T04:17:25;20.20;99.90
8711;DHT22;4392;47.400;8.062;2023-09-19T04:19:51;20.10;99.90
8711;DHT22;4392;47.400;8.062;2023-09-19T04:22:17;20.10;99.90
8711;DHT22;4392;47.400;8.062;2023-09-19T04:24:42;20.10;99.90
8711;DHT22;4392;47.400;8.062;2023-09-19T04:27:08;20.30;99.90
8711;DHT22;4392;47.400;8.062;2023-09-19T04:29:35;20.20;99.90
8711;DHT22;4392;47.400;8.062;2023-09-19T04:32:01;20.20;99.90
8711;DHT22;4392;47.400;8.062;2023-09-19T04:34:29;20.00;99.90
8711;DHT22;4392;47.400;8.062;2023-09-19T04:36:56;19.90;99.90
8711;DHT22;4392;47.400;8.062;2023-09-19T04:39:26;19.90;99.90
8711;DHT22;4392;47.400;8.062;2023-09-19T04:41:54;19.70;99.90
8711;DHT22;4392;47.400;8.062;2023-09-19T04:44:20;19.80;99.90
8711;DHT22;4392;47.400;8.062;2023-09-19T04:46:46;20.20;99.90
8711;DHT22;4392;47.400;8.062;2023-09-19T04:49:12;20.50;99.90
8711;DHT22;4392;47.400;8.062;2023-09-19T04:51:39;20.70;99.90
8711;DHT22;4392;47.400;8.062;2023-09-19T04:54:06;20.80;99.90
8711;DHT22;4392;47.400;8.062;2023-09-19T04:56:32;20.90;99.90
8711;DHT22;4392;47.400;8.062;2023-09-19T04:58:58;20.90;99.90
8711;DHT22;4392;47.400;8.062;2023-09-19T05:01:27;20.90;99.90
8711;DHT22;4392;47.400;8.062;2023-09-19T05:03:52;21.00;99.90
8711;DHT22;4392;47.400;8.062;2023-09-19T05:06:21;20.80;99.90
8711;DHT22;4392;47.400;8.062;2023-09-19T05:08:48;20.90;99.90
8711;DHT22;4392;47.400;8.062;2023-09-19T05:11:17;21.00;99.90
8711;DHT22;4392;47.400;8.062;2023-09-19T05:13:44;20.90;99.90
8711;DHT22;4392;47.400;8.062;2023-09-19T05:16:09;21.00;99.90
8711;DHT22;4392;47.400;8.062;2023-09-19T05:18:35;21.00;99.90
8711;DHT22;4392;47.400;8.062;2023-09-19T05:21:04;21.00;99.90
8711;DHT22;4392;47.400;8.062;2023-09-19T05:23:30;21.00;99.90
8711;DHT22;4392;47.400;8.062;2023-09-19T05:25:56;21.00;99.90
8711;DHT22;4392;47.400;8.062;2023-09-19T05:28:23;21.00;99.90
8711;DHT22;4392;47.400;8.062;2023-09-19T05:30:49;21.00;99.90
8711;DHT22;4392;47.400;8.062;2023-09-19T05:33:15;21.00;99.90
8711;DHT22;4392;47.400;8.062;2023-09-19T05:35:41;21.00;99.90
8711;DHT22;4392;47.400;8.062;2023-09-19T05:38:07;21.00;99.90
8711;DHT22;4392;47.400;8.062;2023-09-19T05:40:35;21.10;99.90
8711;DHT22;4392;47.400;8.062;2023-09-19T05:43:01;21.10;99.90
8711;DHT22;4392;47.400;8.062;2023-09-19T05:45:28;21.10;99.90
8711;DHT22;4392;47.400;8.062;2023-09-19T05:47:54;21.10;99.90
8711;DHT22;4392;47.400;8.062;2023-09-19T05:50:26;21.20;99.90
8711;DHT22;4392;47.400;8.062;2023-09-19T05:52:55;21.20;99.90
8711;DHT22;4392;47.400;8.062;2023-09-19T05:55:21;21.20;99.90
8711;DHT22;4392;47.400;8.062;2023-09-19T05:57:53;21.20;99.90
8711;DHT22;4392;47.400;8.062;2023-09-19T06:00:20;21.20;99.90
8711;DHT22;4392;47.400;8.062;2023-09-19T06:02:53;21.20;99.90
8711;DHT22;4392;47.400;8.062;2023-09-19T06:05:23;21.20;99.90
8711;DHT22;4392;47.400;8.062;2023-09-19T06:07:49;21.20;99.90
8711;DHT22;4392;47.400;8.062;2023-09-19T06:10:15;21.30;99.90
8711;DHT22;4392;47.400;8.062;2023-09-19T06:12:44;21.30;99.90
8711;DHT22;4392;47.400;8.062;2023-09-19T06:15:11;21.30;99.90
8711;DHT22;4392;47.400;8.062;2023-09-19T06:17:54;21.30;99.90
8711;DHT22;4392;47.400;8.062;2023-09-19T06:20:25;21.10;99.90
8711;DHT22;4392;47.400;8.062;2023-09-19T06:22:52;21.10;99.90
8711;DHT22;4392;47.400;8.062;2023-09-19T06:25:18;21.10;99.90
8711;DHT22;4392;47.400;8.062;2023-09-19T06:27:51;21.20;99.90
8711;DHT22;4392;47.400;8.062;2023-09-19T06:30:21;21.20;99.90
8711;DHT22;4392;47.400;8.062;2023-09-19T06:32:48;21.10;99.90
8711;DHT22;4392;47.400;8.062;2023-09-19T06:35:15;21.20;99.90
8711;DHT22;4392;47.400;8.062;2023-09-19T06:37:42;21.20;99.90
8711;DHT22;4392;47.400;8.062;2023-09-19T06:40:14;21.10;99.90
8711;DHT22;4392;47.400;8.062;2023-09-19T06:42:47;21.20;99.90
8711;DHT22;4392;47.400;8.062;2023-09-19T06:45:15;21.10;99.90
8711;DHT22;4392;47.400;8.062;2023-09-19T06:47:47;21.10;99.90
8711;DHT22;4392;47.400;8.062;2023-09-19T06:50:21;21.20;99.90
8711;DHT22;4392;47.400;8.062;2023-09-19T06:52:49;21.20;99.90
8711;DHT22;4392;47.400;8.062;2023-09-19T06:55:16;21.20;99.90
8711;DHT22;4392;47.400;8.062;2023-09-19T06:57:42;21.20;99.90
8711;DHT22;4392;47.400;8.062;2023-09-19T07:00:10;21.30;99.90
8711;DHT22;4392;47.400;8.062;2023-09-19T07:02:54;21.30;99.90
8711;DHT22;4392;47.400;8.062;2023-09-19T07:05:20;21.30;99.90
8711;DHT22;4392;47.400;8.062;2023-09-19T07:07:47;21.30;99.90
8711;DHT22;4392;47.400;8.062;2023-09-19T07:10:12;21.20;99.90
8711;DHT22;4392;47.400;8.062;2023-09-19T07:12:39;21.20;99.90
8711;DHT22;4392;47.400;8.062;2023-09-19T07:15:09;21.30;99.90
8711;DHT22;4392;47.400;8.062;2023-09-19T07:17:34;21.30;99.90
8711;DHT22;4392;47.400;8.062;2023-09-19T07:20:00;21.20;99.90
8711;DHT22;4392;47.400;8.062;2023-09-19T07:22:26;21.20;99.90
8711;DHT22;4392;47.400;8.062;2023-09-19T07:24:52;21.30;99.90
8711;DHT22;4392;47.400;8.062;2023-09-19T07:27:18;21.30;99.90
8711;DHT22;4392;47.400;8.062;2023-09-19T07:29:43;21.30;99.90
8711;DHT22;4392;47.400;8.062;2023-09-19T07:32:10;21.30;99.90
8711;DHT22;4392;47.400;8.062;2023-09-19T07:34:37;21.30;99.90
8711;DHT22;4392;47.400;8.062;2023-09-19T07:37:06;21.30;99.90
8711;DHT22;4392;47.400;8.062;2023-09-19T07:39:31;21.30;99.90
8711;DHT22;4392;47.400;8.062;2023-09-19T07:41:59;21.30;99.90
8711;DHT22;4392;47.400;8.062;2023-09-19T07:44:25;21.30;99.90
8711;DHT22;4392;47.400;8.062;2023-09-19T07:46:51;21.30;99.90
8711;DHT22;4392;47.400;8.062;2023-09-19T07:49:17;21.30;99.90
8711;DHT22;4392;47.400;8.062;2023-09-19T07:51:43;21.30;99.90
8711;DHT22;4392;47.400;8.062;2023-09-19T07:54:12;21.30;99.90
8711;DHT22;4392;47.400;8.062;2023-09-19T07:56:38;21.20;99.90
8711;DHT22;4392;47.400;8.062;2023-09-19T07:59:04;21.30;99.90
8711;DHT22;4392;47.400;8.062;2023-09-19T08:01:29;21.30;99.90
8711;DHT22;4392;47.400;8.062;2023-09-19T08:03:55;21.30;99.90
8711;DHT22;4392;47.400;8.062;2023-09-19T08:06:21;21.30;99.90
8711;DHT22;4392;47.400;8.062;2023-09-19T08:08:46;21.30;99.90
8711;DHT22;4392;47.400;8.062;2023-09-19T08:11:12;21.30;99.90
8711;DHT22;4392;47.400;8.062;2023-09-19T08:13:46;21.40;99.90
8711;DHT22;4392;47.400;8.062;2023-09-19T08:16:15;21.20;99.90
8711;DHT22;4392;47.400;8.062;2023-09-19T08:18:41;21.10;99.90
8711;DHT22;4392;47.400;8.062;2023-09-19T08:21:07;21.10;99.90
8711;DHT22;4392;47.400;8.062;2023-09-19T08:23:36;21.00;99.90
8711;DHT22;4392;47.400;8.062;2023-09-19T08:26:02;20.90;99.90
8711;DHT22;4392;47.400;8.062;2023-09-19T08:28:35;20.90;99.90
8711;DHT22;4392;47.400;8.062;2023-09-19T08:31:05;21.00;99.90
8711;DHT22;4392;47.400;8.062;2023-09-19T08:33:37;21.00;99.90
8711;DHT22;4392;47.400;8.062;2023-09-19T08:36:04;20.90;99.90
8711;DHT22;4392;47.400;8.062;2023-09-19T08:38:34;20.90;99.90
8711;DHT22;4392;47.400;8.062;2023-09-19T08:41:01;20.80;99.90
8711;DHT22;4392;47.400;8.062;2023-09-19T08:43:30;20.80;99.90
8711;DHT22;4392;47.400;8.062;2023-09-19T08:51:27;20.60;99.90
8711;DHT22;4392;47.400;8.062;2023-09-19T08:56:29;20.70;99.90
8711;DHT22;4392;47.400;8.062;2023-09-19T08:59:02;20.70;99.90
8711;DHT22;4392;47.400;8.062;2023-09-19T09:01:29;20.80;99.90
8711;DHT22;4392;47.400;8.062;2023-09-19T09:03:58;21.00;99.90
8711;DHT22;4392;47.400;8.062;2023-09-19T09:06:25;21.10;99.90
8711;DHT22;4392;47.400;8.062;2023-09-19T09:08:51;21.10;99.90
8711;DHT22;4392;47.400;8.062;2023-09-19T09:11:20;21.20;99.90
8711;DHT22;4392;47.400;8.062;2023-09-19T09:13:46;21.30;99.90
8711;DHT22;4392;47.400;8.062;2023-09-19T09:16:14;21.40;99.90
8711;DHT22;4392;47.400;8.062;2023-09-19T09:18:44;21.40;99.90
8711;DHT22;4392;47.400;8.062;2023-09-19T09:21:11;21.40;99.90
8711;DHT22;4392;47.400;8.062;2023-09-19T09:23:36;21.40;99.90
8711;DHT22;4392;47.400;8.062;2023-09-19T09:26:02;21.50;99.90
8711;DHT22;4392;47.400;8.062;2023-09-19T09:28:31;21.50;99.90
8711;DHT22;4392;47.400;8.062;2023-09-19T09:30:58;21.50;99.90
8711;DHT22;4392;47.400;8.062;2023-09-19T09:33:24;21.60;99.90
8711;DHT22;4392;47.400;8.062;2023-09-19T09:35:58;21.60;99.90
8711;DHT22;4392;47.400;8.062;2023-09-19T09:38:46;21.30;99.90
8711;DHT22;4392;47.400;8.062;2023-09-19T09:41:16;21.40;99.90
8711;DHT22;4392;47.400;8.062;2023-09-19T09:43:52;21.60;99.90
8711;DHT22;4392;47.400;8.062;2023-09-19T09:46:19;21.60;99.90
8711;DHT22;4392;47.400;8.062;2023-09-19T09:49:05;21.70;99.90
8711;DHT22;4392;47.400;8.062;2023-09-19T09:51:45;21.70;99.90
8711;DHT22;4392;47.400;8.062;2023-09-19T09:54:23;21.70;99.90
8711;DHT22;4392;47.400;8.062;2023-09-19T09:56:56;21.70;99.90
8711;DHT22;4392;47.400;8.062;2023-09-19T10:02:13;21.70;99.90
8711;DHT22;4392;47.400;8.062;2023-09-19T10:04:39;21.80;99.90
8711;DHT22;4392;47.400;8.062;2023-09-19T10:07:30;21.70;99.90
8711;DHT22;4392;47.400;8.062;2023-09-19T10:10:08;21.70;99.90
8711;DHT22;4392;47.400;8.062;2023-09-19T10:12:44;21.70;99.90
8711;DHT22;4392;47.400;8.062;2023-09-19T10:15:18;21.80;99.90
8711;DHT22;4392;47.400;8.062;2023-09-19T10:17:46;21.80;99.90
8711;DHT22;4392;47.400;8.062;2023-09-19T10:20:16;21.90;99.90
8711;DHT22;4392;47.400;8.062;2023-09-19T10:22:59;22.00;99.90
8711;DHT22;4392;47.400;8.062;2023-09-19T10:25:28;22.00;99.90
8711;DHT22;4392;47.400;8.062;2023-09-19T10:28:07;22.00;99.90
8711;DHT22;4392;47.400;8.062;2023-09-19T10:30:46;22.00;99.90
8711;DHT22;4392;47.400;8.062;2023-09-19T10:33:14;22.00;99.90
8711;DHT22;4392;47.400;8.062;2023-09-19T10:35:43;22.00;99.90
8711;DHT22;4392;47.400;8.062;2023-09-19T10:38:12;22.10;99.90
8711;DHT22;4392;47.400;8.062;2023-09-19T10:40:39;22.10;99.90
8711;DHT22;4392;47.400;8.062;2023-09-19T10:43:13;22.10;99.90
8711;DHT22;4392;47.400;8.062;2023-09-19T10:45:51;22.10;99.90
8711;DHT22;4392;47.400;8.062;2023-09-19T10:48:19;22.10;99.90
8711;DHT22;4392;47.400;8.062;2023-09-19T10:50:52;22.00;99.90
8711;DHT22;4392;47.400;8.062;2023-09-19T10:53:20;21.90;99.90
8711;DHT22;4392;47.400;8.062;2023-09-19T10:55:58;21.90;99.90
8711;DHT22;4392;47.400;8.062;2023-09-19T10:58:30;22.00;99.90
8711;DHT22;4392;47.400;8.062;2023-09-19T11:01:00;22.00;99.90
8711;DHT22;4392;47.400;8.062;2023-09-19T11:03:38;22.10;99.90
8711;DHT22;4392;47.400;8.062;2023-09-19T11:06:17;22.10;99.90
8711;DHT22;4392;47.400;8.062;2023-09-19T11:30:49;22.10;99.90
8711;DHT22;4392;47.400;8.062;2023-09-19T11:36:13;22.20;99.90
8711;DHT22;4392;47.400;8.062;2023-09-19T11:43:54;21.60;99.90
8711;DHT22;4392;47.400;8.062;2023-09-19T11:49:26;22.00;99.90
8711;DHT22;4392;47.400;8.062;2023-09-19T11:51:55;22.10;99.90
8711;DHT22;4392;47.400;8.062;2023-09-19T11:54:24;22.00;99.90
8711;DHT22;4392;47.400;8.062;2023-09-19T11:56:54;22.00;99.50
8711;DHT22;4392;47.400;8.062;2023-09-19T11:59:21;22.00;99.60
8711;DHT22;4392;47.400;8.062;2023-09-19T12:01:52;22.00;99.10
8711;DHT22;4392;47.400;8.062;2023-09-19T12:07:04;21.80;98.90
8711;DHT22;4392;47.400;8.062;2023-09-19T12:09:31;21.90;98.60
8711;DHT22;4392;47.400;8.062;2023-09-19T12:11:57;22.00;97.70
8711;DHT22;4392;47.400;8.062;2023-09-19T12:14:24;21.90;97.60
8711;DHT22;4392;47.400;8.062;2023-09-19T12:16:55;21.90;97.40
8711;DHT22;4392;47.400;8.062;2023-09-19T12:19:22;21.90;97.60
8711;DHT22;4392;47.400;8.062;2023-09-19T12:22:15;22.00;97.20
8711;DHT22;4392;47.400;8.062;2023-09-19T12:24:43;22.00;96.80
8711;DHT22;4392;47.400;8.062;2023-09-19T12:27:10;22.00;97.80
8711;DHT22;4392;47.400;8.062;2023-09-19T12:29:48;22.00;98.00
8711;DHT22;4392;47.400;8.062;2023-09-19T12:32:14;22.00;97.40
8711;DHT22;4392;47.400;8.062;2023-09-19T12:34:42;22.00;97.70
8711;DHT22;4392;47.400;8.062;2023-09-19T12:37:20;22.10;97.40
8711;DHT22;4392;47.400;8.062;2023-09-19T12:39:53;22.20;96.50
8711;DHT22;4392;47.400;8.062;2023-09-19T12:42:25;22.20;95.70
8711;DHT22;4392;47.400;8.062;2023-09-19T12:44:58;22.20;95.90
8711;DHT22;4392;47.400;8.062;2023-09-19T12:47:27;22.30;96.30
8711;DHT22;4392;47.400;8.062;2023-09-19T12:50:14;22.30;95.90
8711;DHT22;4392;47.400;8.062;2023-09-19T12:52:45;22.40;95.80
8711;DHT22;4392;47.400;8.062;2023-09-19T12:55:30;22.40;96.10
8711;DHT22;4392;47.400;8.062;2023-09-19T12:58:14;22.40;95.80
8711;DHT22;4392;47.400;8.062;2023-09-19T13:00:46;22.50;95.00
8711;DHT22;4392;47.400;8.062;2023-09-19T13:06:01;22.60;91.80
8711;DHT22;4392;47.400;8.062;2023-09-19T13:08:35;22.70;91.30
8711;DHT22;4392;47.400;8.062;2023-09-19T13:11:15;22.70;91.50
8711;DHT22;4392;47.400;8.062;2023-09-19T13:13:51;22.80;90.80
8711;DHT22;4392;47.400;8.062;2023-09-19T13:22:03;23.00;90.90
8711;DHT22;4392;47.400;8.062;2023-09-19T13:24:29;23.00;90.50
8711;DHT22;4392;47.400;8.062;2023-09-19T13:27:00;23.10;90.60
8711;DHT22;4392;47.400;8.062;2023-09-19T13:29:26;23.10;90.30
8711;DHT22;4392;47.400;8.062;2023-09-19T13:31:52;23.20;90.20
8711;DHT22;4392;47.400;8.062;2023-09-19T13:34:21;23.30;90.30
8711;DHT22;4392;47.400;8.062;2023-09-19T13:36:47;23.40;90.40
8711;DHT22;4392;47.400;8.062;2023-09-19T13:39:18;23.40;90.40
8711;DHT22;4392;47.400;8.062;2023-09-19T13:41:45;23.50;90.20
8711;DHT22;4392;47.400;8.062;2023-09-19T13:44:11;23.40;89.60
8711;DHT22;4392;47.400;8.062;2023-09-19T13:46:40;23.40;89.30
8711;DHT22;4392;47.400;8.062;2023-09-19T13:49:09;23.50;88.90
8711;DHT22;4392;47.400;8.062;2023-09-19T13:51:35;23.50;89.10
8711;DHT22;4392;47.400;8.062;2023-09-19T13:54:00;23.50;89.10
8711;DHT22;4392;47.400;8.062;2023-09-19T13:56:26;23.60;89.00
8711;DHT22;4392;47.400;8.062;2023-09-19T13:58:58;23.70;87.70
8711;DHT22;4392;47.400;8.062;2023-09-19T14:01:24;23.70;86.90
8711;DHT22;4392;47.400;8.062;2023-09-19T14:03:52;23.70;86.50
8711;DHT22;4392;47.400;8.062;2023-09-19T14:06:19;23.80;84.60
8711;DHT22;4392;47.400;8.062;2023-09-19T14:08:47;24.00;84.30
8711;DHT22;4392;47.400;8.062;2023-09-19T14:11:16;24.10;83.80
8711;DHT22;4392;47.400;8.062;2023-09-19T14:13:42;24.10;82.50
8711;DHT22;4392;47.400;8.062;2023-09-19T14:16:12;24.30;80.80
8711;DHT22;4392;47.400;8.062;2023-09-19T14:18:37;24.30;79.90
8711;DHT22;4392;47.400;8.062;2023-09-19T14:21:07;24.40;77.70
8711;DHT22;4392;47.400;8.062;2023-09-19T14:23:40;24.30;77.50
8711;DHT22;4392;47.400;8.062;2023-09-19T14:26:06;24.40;76.20
8711;DHT22;4392;47.400;8.062;2023-09-19T14:28:32;24.50;75.50
8711;DHT22;4392;47.400;8.062;2023-09-19T14:31:08;24.60;74.20
8711;DHT22;4392;47.400;8.062;2023-09-19T14:33:34;24.70;74.30
8711;DHT22;4392;47.400;8.062;2023-09-19T14:36:04;24.70;75.10
8711;DHT22;4392;47.400;8.062;2023-09-19T14:38:32;24.90;74.90
8711;DHT22;4392;47.400;8.062;2023-09-19T14:41:00;25.10;74.60
8711;DHT22;4392;47.400;8.062;2023-09-19T14:43:26;25.20;74.10
8711;DHT22;4392;47.400;8.062;2023-09-19T14:45:54;25.10;74.00
8711;DHT22;4392;47.400;8.062;2023-09-19T14:48:20;25.10;73.90
8711;DHT22;4392;47.400;8.062;2023-09-19T14:50:48;25.20;73.80
8711;DHT22;4392;47.400;8.062;2023-09-19T14:53:16;25.30;73.20
8711;DHT22;4392;47.400;8.062;2023-09-19T14:55:41;25.30;73.80
8711;DHT22;4392;47.400;8.062;2023-09-19T14:58:10;25.50;72.20
8711;DHT22;4392;47.400;8.062;2023-09-19T15:00:36;25.40;72.80
8711;DHT22;4392;47.400;8.062;2023-09-19T15:03:02;25.50;71.70
8711;DHT22;4392;47.400;8.062;2023-09-19T15:05:29;25.40;72.40
8711;DHT22;4392;47.400;8.062;2023-09-19T15:07:59;25.50;72.70
8711;DHT22;4392;47.400;8.062;2023-09-19T15:10:25;25.60;71.10
8711;DHT22;4392;47.400;8.062;2023-09-19T15:12:53;25.70;70.50
8711;DHT22;4392;47.400;8.062;2023-09-19T15:15:21;25.80;69.70
8711;DHT22;4392;47.400;8.062;2023-09-19T15:17:47;25.90;70.60
8711;DHT22;4392;47.400;8.062;2023-09-19T15:20:13;25.90;69.50
8711;DHT22;4392;47.400;8.062;2023-09-19T15:22:41;25.90;67.30
8711;DHT22;4392;47.400;8.062;2023-09-19T15:25:08;25.90;67.30
8711;DHT22;4392;47.400;8.062;2023-09-19T15:27:33;26.00;67.90
8711;DHT22;4392;47.400;8.062;2023-09-19T15:30:00;26.10;66.10
8711;DHT22;4392;47.400;8.062;2023-09-19T15:32:28;26.20;66.00
8711;DHT22;4392;47.400;8.062;2023-09-19T15:34:57;26.30;66.80
8711;DHT22;4392;47.400;8.062;2023-09-19T15:37:25;26.30;66.10
8711;DHT22;4392;47.400;8.062;2023-09-19T15:39:51;26.30;65.30
8711;DHT22;4392;47.400;8.062;2023-09-19T15:42:18;26.30;65.80
8711;DHT22;4392;47.400;8.062;2023-09-19T15:44:44;26.40;66.20
8711;DHT22;4392;47.400;8.062;2023-09-19T15:47:12;26.40;66.40
8711;DHT22;4392;47.400;8.062;2023-09-19T15:49:38;26.50;65.40
8711;DHT22;4392;47.400;8.062;2023-09-19T15:52:10;26.60;64.90
8711;DHT22;4392;47.400;8.062;2023-09-19T15:54:36;26.50;64.30
8711;DHT22;4392;47.400;8.062;2023-09-19T15:57:07;26.50;64.10
8711;DHT22;4392;47.400;8.062;2023-09-19T15:59:33;26.60;63.70
8711;DHT22;4392;47.400;8.062;2023-09-19T16:01:58;26.60;64.60
8711;DHT22;4392;47.400;8.062;2023-09-19T16:04:24;26.70;64.60
8711;DHT22;4392;47.400;8.062;2023-09-19T16:06:51;26.60;64.50
8711;DHT22;4392;47.400;8.062;2023-09-19T16:09:17;26.60;64.20
8711;DHT22;4392;47.400;8.062;2023-09-19T16:11:43;26.60;64.50
8711;DHT22;4392;47.400;8.062;2023-09-19T16:14:11;26.50;63.70
8711;DHT22;4392;47.400;8.062;2023-09-19T16:16:41;26.60;63.60
8711;DHT22;4392;47.400;8.062;2023-09-19T16:19:07;26.50;63.40
8711;DHT22;4392;47.400;8.062;2023-09-19T16:21:37;26.60;63.20
8711;DHT22;4392;47.400;8.062;2023-09-19T16:24:05;26.60;63.20
8711;DHT22;4392;47.400;8.062;2023-09-19T16:26:32;26.60;63.40
8711;DHT22;4392;47.400;8.062;2023-09-19T16:28:58;26.70;63.30
8711;DHT22;4392;47.400;8.062;2023-09-19T16:31:32;26.70;63.10
8711;DHT22;4392;47.400;8.062;2023-09-19T16:34:01;26.60;63.50
8711;DHT22;4392;47.400;8.062;2023-09-19T16:36:27;26.50;64.30
8711;DHT22;4392;47.400;8.062;2023-09-19T16:38:53;26.40;65.00
8711;DHT22;4392;47.400;8.062;2023-09-19T16:41:19;26.30;65.70
8711;DHT22;4392;47.400;8.062;2023-09-19T16:43:45;26.30;65.90
8711;DHT22;4392;47.400;8.062;2023-09-19T16:46:12;26.00;66.50
8711;DHT22;4392;47.400;8.062;2023-09-19T16:48:39;26.10;66.90
8711;DHT22;4392;47.400;8.062;2023-09-19T16:51:07;26.20;66.40
8711;DHT22;4392;47.400;8.062;2023-09-19T16:53:34;26.20;67.10
8711;DHT22;4392;47.400;8.062;2023-09-19T16:56:05;26.30;66.90
8711;DHT22;4392;47.400;8.062;2023-09-19T16:58:37;26.30;68.10
8711;DHT22;4392;47.400;8.062;2023-09-19T17:01:06;26.40;66.90
8711;DHT22;4392;47.400;8.062;2023-09-19T17:03:39;26.40;67.20
8711;DHT22;4392;47.400;8.062;2023-09-19T17:06:08;26.30;67.40
8711;DHT22;4392;47.400;8.062;2023-09-19T17:08:37;26.30;67.30
8711;DHT22;4392;47.400;8.062;2023-09-19T17:11:07;26.20;67.70
8711;DHT22;4392;47.400;8.062;2023-09-19T17:13:39;26.00;68.50
8711;DHT22;4392;47.400;8.062;2023-09-19T17:16:10;25.90;69.60
8711;DHT22;4392;47.400;8.062;2023-09-19T17:18:43;25.70;70.20
8711;DHT22;4392;47.400;8.062;2023-09-19T17:21:10;25.50;70.30
8711;DHT22;4392;47.400;8.062;2023-09-19T17:23:38;25.30;70.50
8711;DHT22;4392;47.400;8.062;2023-09-19T17:26:08;25.20;71.20
8711;DHT22;4392;47.400;8.062;2023-09-19T17:28:39;25.10;71.70